AirNav   Everest Fuels
 
 1178 users online  

23FA Ocean Beach Resort Heliport
Miami Beach, Florida, USA

GOING TO MIAMI BEACH?


FAA INFORMATION EFFECTIVE 25 MARCH 2021

Location

FAA Identifier: 23FA
Lat/Long: 25-49-32.3490N 080-07-16.1620W
25-49.539150N 080-07.269367W
25.8256525,-80.1211561
(estimated)
Elevation: 6 ft. / 2 m (estimated)
Variation: 03W (1985)
Time zone: UTC -4 (UTC -5 during Standard Time)
Zip code: 33140

Heliport Operations

Heliport use: Private use. Permission required prior to landing
Activation date: 01/1965
Control tower: no
ARTCC: MIAMI CENTER
FSS: MIAMI FLIGHT SERVICE STATION
Attendance: DAWN-DUSK
Wind indicator: yes, WIND CONE IS PORTABLE & REMOVED WHEN NOT IN USE.
Segmented circle: no

Heliport Communications

WX ASOS at MIA (9 nm W): 119.15 (305-870-0235)
WX ASOS at OPF (10 nm NW): 125.9 (305-681-4063)
WX ASOS at HWO (12 nm NW): PHONE 954-983-5904
WX ASOS at FLL (15 nm N): 135.0 (954-359-7857)
WX ASOS at TMB (20 nm SW): 124.0 (305-235-1332)

Nearby radio navigation aids

VOR radial/distance  VOR name  Freq  Var
VKZr026/4.8VIRGINIA KEY VOR/DME117.1004W
DHPr087/12.4DOLPHIN VORTAC113.9004W
FLLr177/15.1FORT LAUDERDALE VOR/DME114.4006W

Heliport Services

Airframe service: NONE
Powerplant service: NONE

Runway Information

Helipad H1

Dimensions: 50 x 40 ft. / 15 x 12 m
ORIENTED N/S
Surface: wood, in fair condition
Operational restrictions: N-S APCHS CLEAR
Latitude: 25-49.539150N
Longitude: 080-07.269367W
Elevation: 6.0 ft.
Traffic pattern: leftleft
Markings: none, in fair condition

Helipad H2

Dimensions: 40 x 50 ft. / 12 x 15 m
ORIENTED E/W DRCTN.
Surface: wood
Traffic pattern: leftleft

Heliport Ownership and Management from official FAA records

Ownership: Privately-owned
Owner: MB FLORIDA LTD, LLC
4835 COLLINS AVE, SUITE 801
MIAMI BEACH, FL 33140
Phone (305) 538-8666
CONTACT: JOEL SIMMONDS
Manager: JOEL SIMMONDS
4835 COLLINS AVE, SUITE 801
MIAMI BEACH, FL 33140
Phone (305) 538-8666

Additional Remarks

A52-H2 TREES & LGT POLES, BLDGS IMMED E; TREES AT 10:1 ON RIVER TO W.
FOR CD CTC MIAMI APCH AT 305-869-5432.

Instrument Procedures

There are no published instrument procedures at 23FA.

Some nearby airports with instrument procedures:

KMIA - Miami International Airport (9 nm W)
KOPF - Miami-Opa LockaExecutive Airport (10 nm NW)
KHWO - North Perry Airport (12 nm NW)
KFLL - Fort Lauderdale/Hollywood International Airport (15 nm N)
KTMB - MiamiExecutive Airport (20 nm SW)
 
Loc | Ops | Rwys | IFR | FBO | Links
Com | Nav | Svcs | Stats | Notes

Reliance Aviation
AirBoss

 
Area around 23FA (Ocean Beach Resort Heliport)
 
Road maps at: MapQuest Bing Google
 
Aerial photo
No photo
 
Sectional chart

 
Airport distance calculator
Flying to Ocean Beach Resort Heliport? Find the distance to fly.

From to 23FA

Sunrise and sunset
Times for 12-Apr-2021
 Local
(UTC-4)
 Zulu
(UTC)
Morning civil twilight06:3810:38
Sunrise07:0111:01
Sunset19:4123:41
Evening civil twilight20:0500:05

Current date and time
Zulu (UTC)  12-Apr-2021 22:44:16
Local (UTC-4)  12-Apr-2021 18:44:16
 
METAR
KOPF 
10nm NW 
122153Z 33008KT 10SM FEW024 SCT034 BKN080 28/20 A2985 RMK AO2 RAE2055 SLP108 T02830200 PNO $
KMIA 
11nm W 
122153Z 10007KT 10SM FEW016 FEW030 SCT090 26/23 A2985 RMK AO2 RAE20 SLP106 CB DSNT NE-SE MOV SE P0017 T02560228
KHWO 
12nm NW 
122153Z 34007KT 10SM FEW027 BKN070 BKN095 29/21 A2985 RMK AO2 RAB15E35 SLP108 P0000 T02890206
KFLL 
15nm N 
122153Z 33009KT 10SM SCT036 SCT075 BKN090 29/21 A2983 RMK AO2 SLP100 T02890211
KTMB 
20nm SW 
122153Z 32007KT 10SM BKN036 BKN046 29/21 A2983 RMK AO2 RAE45 SLP101 P0000 T02890211
TAF
KOPF 
10nm NW 
122052Z 1221/1318 30009KT P6SM VCTS SCT025CB BKN050 TEMPO 1221/1222 VRB10G20KT 3SM TSRA BKN025CB FM122200 36010KT P6SM SCT025 FM130000 05007KT P6SM SCT025
KMIA 
11nm W 
122052Z 1221/1324 24009KT P6SM VCTS SCT025CB BKN035 TEMPO 1221/1222 VRB10G20KT 3SM TSRA BKN025CB FM122200 33010KT P6SM FEW025 FM130000 05006KT P6SM SKC FM131600 09013KT P6SM SKC
KFLL 
15nm N 
122052Z 1221/1324 35010KT P6SM SCT025 BKN050 FM130000 05011KT P6SM SCT020 FM131600 09012KT P6SM SKC
KTMB 
20nm SW 
122053Z 1221/1318 26012KT P6SM VCTS SCT025CB BKN035 FM122200 32010KT P6SM FEW025 FM130000 05006KT P6SM SKC
NOTAMs
Click for the latest NOTAMs
NOTAMs are issued by the DoD/FAA and will open in a separate window not controlled by AirNav.

 

 
 

Would you like to see your business listed on this page?

 If your business provides an interesting product or service to pilots, flight crews, aircraft, or users of the Ocean Beach Resort Heliport, you should consider listing it here.  To start the listing process, click on the button below
 
Add a business
 

Other Pages about Ocean Beach Resort Heliport

Update a link
 
Copyright © AirNav, LLC. All rights reserved. Privacy Policy  Contact